Colorado Star — 9HA2189 — position and weather

sailwx.info

Track history (hours):
 
Tides and Currents Weather Stations Pressure Air Temp Water Temp Dewpoint Dewpoint Depression Visibility Wind Speed Wind Dir Waves Ship Positions

Colorado Star

Last reported at 2015-Apr-21 05:33 UTC. Time now 2015-Apr-21 06:32 UTC.
Position N 51°25' E 002°37'.

Length 128 m; draft 8 m.

Type: Ship. MMSI: 248127000.

Date/timePositionNaut miles runAvg speedWind from/ knotsBaromVisibWave heightAir tempDewpointWater temp
2015-Apr-21 05:33N 51°25' E 002°37'0 0.0
2015-Apr-21 04:33N 51°25' E 002°37'0 0.0
2015-Apr-21 03:30N 51°25' E 002°37'0 0.0
2015-Apr-21 02:33N 51°25' E 002°37'0 0.0
2015-Apr-21 01:30N 51°25' E 002°38'0 0.2
2015-Apr-21 00:24N 51°25' E 002°37'0 0.1
2015-Apr-20 23:33N 51°25' E 002°37'0 0.0
2015-Apr-20 22:30N 51°25' E 002°37'0 0.0
2015-Apr-20 21:33N 51°25' E 002°37'0 0.0
2015-Apr-20 20:30N 51°25' E 002°37'0 0.0
2015-Apr-20 19:33N 51°25' E 002°37'0 0.0
2015-Apr-20 18:33N 51°25' E 002°37'0 0.0
2015-Apr-20 17:33N 51°25' E 002°37'0 0.2
2015-Apr-20 16:33N 51°25' E 002°37'2 2.2
2015-Apr-20 15:33N 51°23' E 002°35'1312.8
2015-Apr-20 14:33N 51°18' E 002°17'1413.7
2015-Apr-20 13:33N 51°10' E 001°58'1514.5
2015-Apr-20 12:33N 51°02' E 001°40'1414.3
2015-Apr-20 11:34N 50°50' E 001°26'1212.0
2015-Apr-20 10:34N 50°40' E 001°16'1312.7
2015-Apr-20 09:34N 50°32' E 001°01'7910.7
2015-Apr-20 02:12N 50°11' W 000°58'195 9.8
2015-Apr-19 06:25N 50°36' W 006°00'10012.7
2015-Apr-18 22:33N 52°15' W 005°39'9911.0
2015-Apr-18 13:33N 53°34' W 004°00'1414.3
2015-Apr-18 12:33N 53°34' W 003°36'1312.7
2015-Apr-18 11:33N 53°31' W 003°15'1010.0
2015-Apr-18 10:33N 53°26' W 003°01'7 6.9
2015-Apr-18 09:33N 53°19' W 002°57'0 0.0
2015-Apr-18 08:33N 53°19' W 002°57'3 3.4
2015-Apr-18 07:33N 53°17' W 002°52'0 0.3
2015-Apr-18 06:32N 53°17' W 002°52'0 0.0
2015-Apr-18 05:32N 53°17' W 002°52'0 0.0
2015-Apr-18 04:32N 53°17' W 002°52'0 0.0
2015-Apr-18 03:29N 53°17' W 002°52'0 0.0
2015-Apr-18 02:32N 53°17' W 002°52'0 0.0
2015-Apr-18 01:29N 53°17' W 002°52'0 0.0
2015-Apr-18 00:29N 53°17' W 002°52'0 0.0
2015-Apr-17 23:29N 53°17' W 002°52'0 0.0
2015-Apr-17 22:32N 53°17' W 002°52'0 0.0
2015-Apr-17 21:32N 53°17' W 002°52'0 0.0
2015-Apr-17 20:29N 53°17' W 002°52'0 0.0
2015-Apr-17 19:32N 53°17' W 002°52'0 0.0
2015-Apr-17 18:32N 53°17' W 002°52'0 0.0
2015-Apr-17 17:29N 53°17' W 002°52'0 0.0
2015-Apr-17 16:32N 53°17' W 002°52'0 0.0
2015-Apr-17 15:32N 53°17' W 002°52'0 0.0
2015-Apr-17 14:29N 53°17' W 002°52'0 0.0
2015-Apr-17 13:23N 53°17' W 002°52'0 0.0
2015-Apr-17 12:29N 53°17' W 002°52'0 0.0
2015-Apr-17 11:32N 53°17' W 002°52'0 0.0
2015-Apr-17 10:32N 53°17' W 002°52'0 0.0
2015-Apr-17 09:29N 53°17' W 002°52'0 0.0
2015-Apr-17 08:32N 53°17' W 002°52'0 0.0
2015-Apr-17 07:23N 53°17' W 002°52'0 0.0
2015-Apr-17 06:32N 53°17' W 002°52'0 0.0
2015-Apr-17 05:32N 53°17' W 002°52'0 0.0
2015-Apr-17 04:29N 53°17' W 002°52'0 0.0
2015-Apr-17 03:32N 53°17' W 002°52'0 0.0
2015-Apr-17 02:29N 53°17' W 002°52'0 0.0
2015-Apr-17 01:32N 53°17' W 002°52'0 0.0
2015-Apr-17 00:32N 53°17' W 002°52'0 0.0
2015-Apr-16 23:33N 53°17' W 002°52'4 3.6
2015-Apr-16 22:33N 53°19' W 002°57'3 3.1
2015-Apr-16 21:33N 53°22' W 002°59'9 9.2
2015-Apr-16 20:33N 53°30' W 003°06'6 6.5
2015-Apr-16 19:34N 53°31' W 003°17'3 3.1
2015-Apr-16 18:34N 53°31' W 003°22'4 3.4
2015-Apr-16 17:32N 53°28' W 003°22'0 0.1
2015-Apr-16 16:32N 53°27' W 003°22'0 0.0
2015-Apr-16 15:32N 53°27' W 003°22'0 0.1
2015-Apr-16 14:32N 53°28' W 003°23'0 0.0
2015-Apr-16 13:23N 53°28' W 003°23'0 0.0
2015-Apr-16 12:29N 53°28' W 003°23'0 0.0
2015-Apr-16 11:29N 53°28' W 003°23'0 0.0
2015-Apr-16 10:26N 53°28' W 003°22'0 0.0
2015-Apr-16 09:29N 53°28' W 003°22'0 0.1
2015-Apr-16 08:32N 53°28' W 003°22'0 0.0
2015-Apr-16 07:32N 53°28' W 003°22'0 0.0
2015-Apr-16 06:20N 53°28' W 003°22'0 0.0
2015-Apr-16 05:32N 53°28' W 003°22'0 0.0
2015-Apr-16 04:32N 53°28' W 003°22'0 0.0
2015-Apr-16 03:32N 53°27' W 003°22'0 0.1
2015-Apr-16 02:32N 53°28' W 003°22'0 0.0
2015-Apr-16 01:32N 53°28' W 003°23'0 0.0
2015-Apr-16 00:32N 53°28' W 003°23'0 0.0
2015-Apr-15 23:33N 53°28' W 003°23'8 7.7
2015-Apr-15 22:33N 53°31' W 003°34'1111.3
2015-Apr-15 21:33N 53°35' W 003°52'1212.4
2015-Apr-15 20:33N 53°42' W 004°09'4212.9
2015-Apr-15 17:19N 54°12' W 004°59'1013.1
2015-Apr-15 16:33N 54°21' W 005°03'1413.5
2015-Apr-15 15:33N 54°35' W 005°08'1413.6
2015-Apr-15 14:34N 54°48' W 005°14'1312.7
2015-Apr-15 13:33N 55°00' W 005°16'2913.0
2015-Apr-15 11:20N 55°27' W 004°59'15 0.4
2015-Apr-13 22:24N 55°18' W 005°19'1310.2
2015-Apr-13 21:07N 55°14' W 005°41'6 9.7
2015-Apr-13 20:33N 55°14' W 005°51'9 8.9
2015-Apr-13 19:33N 55°19' W 006°04'1110.9
2015-Apr-13 18:33N 55°24' W 006°22'1111.5
2015-Apr-13 17:33N 55°32' W 006°36'1212.5
2015-Apr-13 16:33N 55°41' W 006°51'1312.0
2015-Apr-13 15:29N 55°51' W 007°06'13410.2
2015-Apr-13 02:24N 58°01' W 006°11'1011.8
2015-Apr-13 01:33N 58°09' W 005°59'1211.8
2015-Apr-13 00:33N 58°18' W 005°44'43 9.8
2015-Apr-12 20:12N 58°42' W 004°37'5 8.2
2015-Apr-12 19:33N 58°42' W 004°27'8 8.2
2015-Apr-12 18:33N 58°42' W 004°11'8 8.3
2015-Apr-12 17:33N 58°42' W 003°55'8 8.3
2015-Apr-12 16:33N 58°42' W 003°39'8 8.2
2015-Apr-12 15:33N 58°43' W 003°23'7 7.4
2015-Apr-12 14:33N 58°43' W 003°09'6 5.6
2015-Apr-12 13:33N 58°40' W 002°59'10 9.5
2015-Apr-12 12:33N 58°36' W 002°43'  
Track history (hours):
 
Tides and Currents Weather Stations Pressure Air Temp Water Temp Dewpoint Dewpoint Depression Visibility Wind Speed Wind Dir Waves Ship Positions

Colorado Star

Last reported at 2015-Apr-21 05:33 UTC. Time now 2015-Apr-21 06:32 UTC.
Position N 51°25' E 002°37'.

Length 128 m; draft 8 m.

Type: Ship. MMSI: 248127000.

Date/timePositionNaut miles runAvg speedWind from/ knotsBaromVisibWave heightAir tempDewpointWater temp
2015-Apr-21 05:33N 51°25' E 002°37'0 0.0
2015-Apr-21 04:33N 51°25' E 002°37'0 0.0
2015-Apr-21 03:30N 51°25' E 002°37'0 0.0
2015-Apr-21 02:33N 51°25' E 002°37'0 0.0
2015-Apr-21 01:30N 51°25' E 002°38'0 0.2
2015-Apr-21 00:24N 51°25' E 002°37'0 0.1
2015-Apr-20 23:33N 51°25' E 002°37'0 0.0
2015-Apr-20 22:30N 51°25' E 002°37'0 0.0
2015-Apr-20 21:33N 51°25' E 002°37'0 0.0
2015-Apr-20 20:30N 51°25' E 002°37'0 0.0
2015-Apr-20 19:33N 51°25' E 002°37'0 0.0
2015-Apr-20 18:33N 51°25' E 002°37'0 0.0
2015-Apr-20 17:33N 51°25' E 002°37'0 0.2
2015-Apr-20 16:33N 51°25' E 002°37'2 2.2
2015-Apr-20 15:33N 51°23' E 002°35'1312.8
2015-Apr-20 14:33N 51°18' E 002°17'1413.7
2015-Apr-20 13:33N 51°10' E 001°58'1514.5
2015-Apr-20 12:33N 51°02' E 001°40'1414.3
2015-Apr-20 11:34N 50°50' E 001°26'1212.0
2015-Apr-20 10:34N 50°40' E 001°16'1312.7
2015-Apr-20 09:34N 50°32' E 001°01'7910.7
2015-Apr-20 02:12N 50°11' W 000°58'195 9.8
2015-Apr-19 06:25N 50°36' W 006°00'10012.7
2015-Apr-18 22:33N 52°15' W 005°39'9911.0
2015-Apr-18 13:33N 53°34' W 004°00'1414.3
2015-Apr-18 12:33N 53°34' W 003°36'1312.7
2015-Apr-18 11:33N 53°31' W 003°15'1010.0
2015-Apr-18 10:33N 53°26' W 003°01'7 6.9
2015-Apr-18 09:33N 53°19' W 002°57'0 0.0
2015-Apr-18 08:33N 53°19' W 002°57'3 3.4
2015-Apr-18 07:33N 53°17' W 002°52'0 0.3
2015-Apr-18 06:32N 53°17' W 002°52'0 0.0
2015-Apr-18 05:32N 53°17' W 002°52'0 0.0
2015-Apr-18 04:32N 53°17' W 002°52'0 0.0
2015-Apr-18 03:29N 53°17' W 002°52'0 0.0
2015-Apr-18 02:32N 53°17' W 002°52'0 0.0
2015-Apr-18 01:29N 53°17' W 002°52'0 0.0
2015-Apr-18 00:29N 53°17' W 002°52'0 0.0
2015-Apr-17 23:29N 53°17' W 002°52'0 0.0
2015-Apr-17 22:32N 53°17' W 002°52'0 0.0
2015-Apr-17 21:32N 53°17' W 002°52'0 0.0
2015-Apr-17 20:29N 53°17' W 002°52'0 0.0
2015-Apr-17 19:32N 53°17' W 002°52'0 0.0
2015-Apr-17 18:32N 53°17' W 002°52'0 0.0
2015-Apr-17 17:29N 53°17' W 002°52'0 0.0
2015-Apr-17 16:32N 53°17' W 002°52'0 0.0
2015-Apr-17 15:32N 53°17' W 002°52'0 0.0
2015-Apr-17 14:29N 53°17' W 002°52'0 0.0
2015-Apr-17 13:23N 53°17' W 002°52'0 0.0
2015-Apr-17 12:29N 53°17' W 002°52'0 0.0
2015-Apr-17 11:32N 53°17' W 002°52'0 0.0
2015-Apr-17 10:32N 53°17' W 002°52'0 0.0
2015-Apr-17 09:29N 53°17' W 002°52'0 0.0
2015-Apr-17 08:32N 53°17' W 002°52'0 0.0
2015-Apr-17 07:23N 53°17' W 002°52'0 0.0
2015-Apr-17 06:32N 53°17' W 002°52'0 0.0
2015-Apr-17 05:32N 53°17' W 002°52'0 0.0
2015-Apr-17 04:29N 53°17' W 002°52'0 0.0
2015-Apr-17 03:32N 53°17' W 002°52'0 0.0
2015-Apr-17 02:29N 53°17' W 002°52'0 0.0
2015-Apr-17 01:32N 53°17' W 002°52'0 0.0
2015-Apr-17 00:32N 53°17' W 002°52'0 0.0
2015-Apr-16 23:33N 53°17' W 002°52'4 3.6
2015-Apr-16 22:33N 53°19' W 002°57'3 3.1
2015-Apr-16 21:33N 53°22' W 002°59'9 9.2
2015-Apr-16 20:33N 53°30' W 003°06'6 6.5
2015-Apr-16 19:34N 53°31' W 003°17'3 3.1
2015-Apr-16 18:34N 53°31' W 003°22'4 3.4
2015-Apr-16 17:32N 53°28' W 003°22'0 0.1
2015-Apr-16 16:32N 53°27' W 003°22'0 0.0
2015-Apr-16 15:32N 53°27' W 003°22'0 0.1
2015-Apr-16 14:32N 53°28' W 003°23'0 0.0
2015-Apr-16 13:23N 53°28' W 003°23'0 0.0
2015-Apr-16 12:29N 53°28' W 003°23'0 0.0
2015-Apr-16 11:29N 53°28' W 003°23'0 0.0
2015-Apr-16 10:26N 53°28' W 003°22'0 0.0
2015-Apr-16 09:29N 53°28' W 003°22'0 0.1
2015-Apr-16 08:32N 53°28' W 003°22'0 0.0
2015-Apr-16 07:32N 53°28' W 003°22'0 0.0
2015-Apr-16 06:20N 53°28' W 003°22'0 0.0
2015-Apr-16 05:32N 53°28' W 003°22'0 0.0
2015-Apr-16 04:32N 53°28' W 003°22'0 0.0
2015-Apr-16 03:32N 53°27' W 003°22'0 0.1
2015-Apr-16 02:32N 53°28' W 003°22'0 0.0
2015-Apr-16 01:32N 53°28' W 003°23'0 0.0
2015-Apr-16 00:32N 53°28' W 003°23'0 0.0
2015-Apr-15 23:33N 53°28' W 003°23'8 7.7
2015-Apr-15 22:33N 53°31' W 003°34'1111.3
2015-Apr-15 21:33N 53°35' W 003°52'1212.4
2015-Apr-15 20:33N 53°42' W 004°09'4212.9
2015-Apr-15 17:19N 54°12' W 004°59'1013.1
2015-Apr-15 16:33N 54°21' W 005°03'1413.5
2015-Apr-15 15:33N 54°35' W 005°08'1413.6
2015-Apr-15 14:34N 54°48' W 005°14'1312.7
2015-Apr-15 13:33N 55°00' W 005°16'2913.0
2015-Apr-15 11:20N 55°27' W 004°59'15 0.4
2015-Apr-13 22:24N 55°18' W 005°19'1310.2
2015-Apr-13 21:07N 55°14' W 005°41'6 9.7
2015-Apr-13 20:33N 55°14' W 005°51'9 8.9
2015-Apr-13 19:33N 55°19' W 006°04'1110.9
2015-Apr-13 18:33N 55°24' W 006°22'1111.5
2015-Apr-13 17:33N 55°32' W 006°36'1212.5
2015-Apr-13 16:33N 55°41' W 006°51'1312.0
2015-Apr-13 15:29N 55°51' W 007°06'13410.2
2015-Apr-13 02:24N 58°01' W 006°11'1011.8
2015-Apr-13 01:33N 58°09' W 005°59'1211.8
2015-Apr-13 00:33N 58°18' W 005°44'43 9.8
2015-Apr-12 20:12N 58°42' W 004°37'5 8.2
2015-Apr-12 19:33N 58°42' W 004°27'8 8.2
2015-Apr-12 18:33N 58°42' W 004°11'8 8.3
2015-Apr-12 17:33N 58°42' W 003°55'8 8.3
2015-Apr-12 16:33N 58°42' W 003°39'8 8.2
2015-Apr-12 15:33N 58°43' W 003°23'7 7.4
2015-Apr-12 14:33N 58°43' W 003°09'6 5.6
2015-Apr-12 13:33N 58°40' W 002°59'10 9.5
2015-Apr-12 12:33N 58°36' W 002°43'  

Dump ship's entire track history